Time;durP1;ratioP1;P1;durP2;ratioP2;P2;SDS_P1;SDS_P2;PMS_P1;PMS_P2;Temp;Humidity;BMP_temperature;BMP_pressure;BME280_temperature;BME280_humidity;BME280_pressure;Samples;Min_cycle;Max_cycle;Signal;HPM_P1;HPM_P2
2023/05/08 00:01:02;;;;;;;47.42;11.80;;;17.00;99.90;;;;;;4149340;28;20180;-94
2023/05/08 00:03:12;;;;;;;198.75;15.93;;;17.00;99.90;;;;;;4133724;28;20185;-95
2023/05/08 05:55:10;;;;;;;290.75;47.47;;;15.40;99.90;;;;;;4511584;23;20238;-95
2023/05/08 05:57:38;;;;;;;274.23;47.72;;;15.30;99.90;;;;;;4072216;29;20267;-96
2023/05/08 05:59:43;;;;;;;201.13;46.70;;;15.40;99.90;;;;;;4043448;29;20185;-94
2023/05/08 06:01:45;;;;;;;142.68;45.63;;;15.50;99.90;;;;;;4055548;29;20196;-94
2023/05/08 06:03:47;;;;;;;139.73;43.90;;;15.60;99.90;;;;;;4052525;29;20343;-93
2023/05/08 06:05:50;;;;;;;226.10;48.25;;;15.70;99.90;;;;;;4042830;29;20185;-95
2023/05/08 06:07:57;;;;;;;379.83;50.95;;;15.80;99.90;;;;;;4028042;29;20192;-95
2023/05/08 06:10:03;;;;;;;162.50;45.83;;;15.80;99.90;;;;;;4041294;29;20181;-94
2023/05/08 06:12:17;;;;;;;182.20;46.47;;;15.80;99.90;;;;;;4040215;29;20284;-96
2023/05/08 06:14:21;;;;;;;170.70;46.83;;;15.80;99.90;;;;;;4027043;29;20222;-94
2023/05/08 06:16:29;;;;;;;175.02;46.70;;;15.90;99.90;;;;;;4042278;29;20281;-94
2023/05/08 06:18:32;;;;;;;157.05;46.95;;;15.90;99.90;;;;;;4044773;29;20189;-94
2023/05/08 06:20:56;;;;;;;241.77;47.58;;;16.00;99.90;;;;;;4046288;29;20203;-93
2023/05/08 06:23:08;;;;;;;154.57;46.63;;;16.20;99.90;;;;;;4040410;29;20527;-95
2023/05/08 06:25:15;;;;;;;175.38;48.13;;;16.20;99.90;;;;;;4027355;29;20198;-94
2023/05/08 06:27:21;;;;;;;149.98;48.08;;;16.20;99.90;;;;;;4028411;29;20178;-94
2023/05/08 06:29:23;;;;;;;150.20;47.13;;;16.20;99.90;;;;;;4040998;29;20177;-94
2023/05/08 06:31:29;;;;;;;155.68;46.85;;;16.30;99.90;;;;;;4027584;29;20182;-95
2023/05/08 06:33:30;;;;;;;183.88;47.75;;;16.30;99.90;;;;;;4027373;29;20285;-93
2023/05/08 06:35:37;;;;;;;199.57;47.65;;;16.30;99.90;;;;;;4039504;29;20263;-94
2023/05/08 06:37:41;;;;;;;152.65;46.42;;;16.50;99.90;;;;;;4028872;29;20644;-93
2023/05/08 06:39:50;;;;;;;138.57;46.40;;;16.40;99.90;;;;;;4040106;29;20189;-92
2023/05/08 06:41:54;;;;;;;137.45;45.88;;;16.40;99.90;;;;;;4023417;29;20261;-93
2023/05/08 06:44:11;;;;;;;146.38;45.50;;;16.40;99.90;;;;;;4025142;29;20540;-94
2023/05/08 06:46:12;;;;;;;146.50;45.35;;;16.50;99.90;;;;;;4025815;29;20762;-95
2023/05/08 06:48:13;;;;;;;168.30;46.83;;;16.60;99.90;;;;;;4042505;29;20178;-94
2023/05/08 06:50:16;;;;;;;177.90;46.67;;;16.50;99.90;;;;;;4027088;29;20242;-93
2023/05/08 06:52:23;;;;;;;145.75;46.15;;;16.60;99.90;;;;;;4040502;29;20677;-96
2023/05/08 06:54:27;;;;;;;175.27;47.58;;;16.60;99.90;;;;;;4040205;29;20619;-95
2023/05/08 06:56:29;;;;;;;129.68;46.42;;;16.50;99.90;;;;;;4024124;29;20197;-94
2023/05/08 06:58:37;;;;;;;141.32;46.55;;;16.50;99.90;;;;;;4042968;29;20216;-95
2023/05/08 07:00:42;;;;;;;121.78;42.22;;;16.60;99.90;;;;;;4040615;29;20327;-94
2023/05/08 07:02:46;;;;;;;115.05;41.97;;;16.60;99.90;;;;;;4025076;29;20258;-94
2023/05/08 07:04:50;;;;;;;115.40;41.55;;;16.70;99.90;;;;;;4039574;29;20194;-95
2023/05/08 07:06:51;;;;;;;110.30;41.70;;;16.70;99.90;;;;;;4039189;29;20178;-93
2023/05/08 07:08:55;;;;;;;109.38;41.80;;;16.70;99.90;;;;;;4025129;29;20182;-95
2023/05/08 07:10:55;;;;;;;113.28;41.75;;;16.70;99.90;;;;;;4027033;29;20633;-96
2023/05/08 07:12:56;;;;;;;108.05;42.28;;;16.80;99.90;;;;;;4026488;29;20181;-95
2023/05/08 07:15:12;;;;;;;113.53;43.85;;;16.80;99.90;;;;;;4027752;29;20263;-95
2023/05/08 07:17:17;;;;;;;109.22;42.20;;;16.90;99.90;;;;;;4058517;29;20176;-94
2023/05/08 07:19:18;;;;;;;105.88;42.05;;;16.90;99.90;;;;;;4028162;29;20206;-96
2023/05/08 07:21:24;;;;;;;111.47;43.40;;;17.00;99.90;;;;;;4024649;29;20178;-95
2023/05/08 07:23:27;;;;;;;104.65;41.63;;;17.10;99.90;;;;;;4038038;29;20646;-94
2023/05/08 07:25:35;;;;;;;111.55;43.40;;;17.20;99.90;;;;;;4025191;29;20186;-95
2023/05/08 07:27:36;;;;;;;109.93;43.50;;;17.20;99.90;;;;;;4045430;29;20260;-95
2023/05/08 07:29:53;;;;;;;112.38;43.47;;;17.20;99.90;;;;;;4041631;29;20177;-94
2023/05/08 07:32:21;;;;;;;97.07;39.90;;;17.30;99.90;;;;;;4038316;29;20186;-95
2023/05/08 07:34:34;;;;;;;112.80;43.40;;;17.30;99.90;;;;;;4022378;29;20257;-95
2023/05/08 07:36:35;;;;;;;110.32;42.45;;;17.40;99.90;;;;;;4039746;29;20276;-95
2023/05/08 07:38:46;;;;;;;114.60;43.67;;;17.40;99.90;;;;;;4038890;29;20246;-95
2023/05/08 07:40:58;;;;;;;106.97;42.30;;;17.30;99.90;;;;;;4040323;29;20671;-94
2023/05/08 07:43:14;;;;;;;104.90;42.65;;;17.40;99.90;;;;;;4039957;29;20182;-94
2023/05/08 07:45:25;;;;;;;120.07;44.38;;;17.40;99.90;;;;;;4039611;29;20253;-94
2023/05/08 07:47:27;;;;;;;119.05;44.95;;;17.30;99.90;;;;;;4024189;29;20240;-94
2023/05/08 07:49:35;;;;;;;112.85;43.40;;;17.40;99.90;;;;;;4042418;29;20194;-94
2023/05/08 07:51:36;;;;;;;119.25;43.92;;;17.30;99.90;;;;;;4041820;29;20630;-94
2023/05/08 07:53:43;;;;;;;119.72;45.22;;;17.30;99.90;;;;;;4037873;29;20241;-93
2023/05/08 07:55:48;;;;;;;129.20;43.80;;;17.20;99.90;;;;;;4025255;29;20198;-95
2023/05/08 07:57:53;;;;;;;111.13;42.95;;;17.20;99.90;;;;;;4024841;29;20175;-94
2023/05/08 08:00:01;;;;;;;106.32;42.67;;;17.30;99.90;;;;;;4038081;29;20181;-94
2023/05/08 08:02:06;;;;;;;95.07;40.08;;;17.20;99.90;;;;;;4039705;29;20189;-94
2023/05/08 08:04:08;;;;;;;95.00;38.60;;;17.20;99.90;;;;;;4024791;29;20205;-96
2023/05/08 08:06:17;;;;;;;95.28;38.08;;;17.30;99.90;;;;;;4024980;29;20174;-94
2023/05/08 08:08:18;;;;;;;99.10;41.28;;;17.40;99.90;;;;;;4039063;29;20177;-93
2023/05/08 08:10:23;;;;;;;98.70;40.00;;;17.50;99.90;;;;;;4041791;29;20264;-94
2023/05/08 08:12:25;;;;;;;101.03;41.67;;;17.60;99.90;;;;;;4023785;29;20589;-94
2023/05/08 08:14:26;;;;;;;96.70;41.58;;;17.60;99.90;;;;;;4039340;29;20225;-94
2023/05/08 08:16:28;;;;;;;86.93;36.60;;;17.60;99.90;;;;;;4022976;29;20186;-94
2023/05/08 08:18:37;;;;;;;83.90;36.45;;;17.50;99.90;;;;;;4037823;29;20726;-95
2023/05/08 08:20:37;;;;;;;67.40;33.75;;;17.50;99.90;;;;;;4039915;29;20221;-95
2023/05/08 08:22:41;;;;;;;67.40;33.72;;;17.40;99.90;;;;;;4040178;29;20244;-94
2023/05/08 08:24:48;;;;;;;64.47;32.42;;;17.50;99.90;;;;;;4039372;29;20201;-94
2023/05/08 08:26:59;;;;;;;65.35;31.38;;;17.50;99.90;;;;;;4022316;29;20568;-94
2023/05/08 08:29:10;;;;;;;60.88;31.73;;;17.70;99.90;;;;;;4043824;29;20189;-90
2023/05/08 08:31:12;;;;;;;58.92;31.25;;;17.80;99.90;;;;;;4024852;29;20265;-91
2023/05/08 08:33:12;;;;;;;59.80;31.13;;;17.90;99.90;;;;;;4025442;29;20206;-92
2023/05/08 08:35:15;;;;;;;57.00;29.95;;;18.00;99.90;;;;;;4039803;29;20228;-91
2023/05/08 08:37:16;;;;;;;52.45;28.90;;;18.10;99.90;;;;;;4027778;29;20154;-90
2023/05/08 08:39:16;;;;;;;54.00;29.05;;;18.10;99.90;;;;;;4041663;29;20196;-90
2023/05/08 08:41:17;;;;;;;53.85;27.77;;;18.10;99.90;;;;;;4025661;29;20178;-91
2023/05/08 08:43:18;;;;;;;48.92;27.02;;;18.10;99.90;;;;;;4025508;29;20213;-92
2023/05/08 08:45:19;;;;;;;51.30;25.80;;;18.00;99.90;;;;;;4037588;29;20205;-90
2023/05/08 08:47:23;;;;;;;49.60;26.65;;;18.00;99.90;;;;;;4022112;29;20174;-90
2023/05/08 08:49:31;;;;;;;45.05;24.77;;;17.80;99.90;;;;;;4037996;29;20181;-91
2023/05/08 08:51:50;;;;;;;46.95;25.75;;;17.70;99.90;;;;;;4039409;29;20626;-91
2023/05/08 08:54:02;;;;;;;49.78;25.27;;;17.60;99.90;;;;;;4037763;29;20285;-91
2023/05/08 08:56:18;;;;;;;50.00;25.60;;;17.70;99.90;;;;;;4025992;29;20205;-90
2023/05/08 08:58:39;;;;;;;48.30;26.05;;;17.60;99.90;;;;;;4050166;29;20168;-91
2023/05/08 09:00:40;;;;;;;52.42;26.95;;;17.60;99.90;;;;;;4041482;29;20198;-90
2023/05/08 09:02:41;;;;;;;48.63;26.95;;;17.70;99.90;;;;;;4037827;29;20264;-90
2023/05/08 09:04:42;;;;;;;50.33;27.10;;;17.90;99.90;;;;;;4025145;29;20221;-91
2023/05/08 09:06:44;;;;;;;50.53;27.38;;;18.10;99.90;;;;;;4025102;29;20265;-91
2023/05/08 09:08:46;;;;;;;55.58;26.05;;;18.40;99.90;;;;;;4025508;29;20189;-90
2023/05/08 09:10:52;;;;;;;47.30;26.77;;;18.60;99.90;;;;;;4048534;29;20615;-91
2023/05/08 09:12:57;;;;;;;48.80;26.45;;;18.70;99.90;;;;;;4047538;29;20205;-91
2023/05/08 09:14:58;;;;;;;49.08;27.08;;;18.90;99.90;;;;;;4028544;29;20217;-91
2023/05/08 09:16:59;;;;;;;49.40;25.88;;;19.10;99.90;;;;;;4032631;29;20197;-91
2023/05/08 09:19:02;;;;;;;52.40;25.70;;;18.90;99.90;;;;;;4045559;29;20181;-91
2023/05/08 09:21:25;;;;;;;59.42;27.40;;;18.70;99.90;;;;;;4028803;29;20182;-91
2023/05/08 09:23:26;;;;;;;58.83;28.23;;;18.90;99.90;;;;;;4035473;29;20218;-93
2023/05/08 09:25:44;;;;;;;58.17;28.15;;;18.90;99.90;;;;;;4051088;29;20176;-91
2023/05/08 09:27:44;;;;;;;53.35;28.38;;;18.90;99.90;;;;;;4037129;29;20652;-91
2023/05/08 09:29:58;;;;;;;56.95;29.08;;;19.00;99.90;;;;;;4034961;29;20189;-92
2023/05/08 09:32:02;;;;;;;62.60;29.13;;;19.00;99.90;;;;;;4044249;29;20221;-92
2023/05/08 09:34:12;;;;;;;57.03;28.10;;;19.00;99.90;;;;;;4056834;29;20233;-92
2023/05/08 09:36:27;;;;;;;58.13;28.42;;;18.90;99.90;;;;;;4035462;29;20162;-92
2023/05/08 09:38:36;;;;;;;51.47;27.63;;;19.00;99.90;;;;;;4038056;29;20162;-91
2023/05/08 09:40:37;;;;;;;53.50;27.83;;;19.20;99.90;;;;;;4040328;29;20272;-91
2023/05/08 09:42:38;;;;;;;58.92;28.83;;;19.10;99.90;;;;;;4050170;29;20190;-92
2023/05/08 09:44:50;;;;;;;50.08;27.13;;;19.20;99.90;;;;;;4051506;29;20611;-93
2023/05/08 09:47:14;;;;;;;56.50;27.35;;;19.50;99.90;;;;;;4039186;29;20279;-92
2023/05/08 09:49:25;;;;;;;50.25;27.35;;;19.50;99.90;;;;;;4038274;29;20190;-92
2023/05/08 09:51:28;;;;;;;53.13;28.58;;;19.40;99.90;;;;;;4055711;29;20173;-93
2023/05/08 09:53:31;;;;;;;55.40;26.85;;;19.50;99.90;;;;;;4038090;29;20178;-93
2023/05/08 09:55:47;;;;;;;48.17;26.25;;;19.40;99.90;;;;;;4051478;29;20219;-91
2023/05/08 09:57:56;;;;;;;45.55;25.02;;;19.60;99.90;;;;;;4030878;29;20213;-92
2023/05/08 10:00:14;;;;;;;40.67;23.58;;;19.50;99.90;;;;;;4054143;29;20224;-93
2023/05/08 10:03:03;;;;;;;44.63;23.70;;;19.50;99.90;;;;;;4054007;29;20188;-91
2023/05/08 10:06:05;;;;;;;43.63;23.95;;;19.50;99.90;;;;;;4051060;29;20213;-91
2023/05/08 10:18:55;;;;;;;35.15;19.60;;;19.60;99.90;;;;;;4059927;29;20177;-93
2023/05/08 10:21:26;;;;;;;33.60;19.42;;;19.80;99.90;;;;;;4056120;29;20169;-95
2023/05/08 10:23:58;;;;;;;30.48;18.38;;;19.60;99.90;;;;;;4035668;29;20166;-91
2023/05/08 10:26:27;;;;;;;34.05;18.90;;;19.70;99.90;;;;;;4024280;29;20702;-91
2023/05/08 10:28:32;;;;;;;29.67;18.38;;;19.90;99.90;;;;;;4126111;23;20228;-95
2023/05/08 10:30:37;;;;;;;29.50;18.30;;;20.20;99.90;;;;;;4038968;29;20181;-93
2023/05/08 10:32:42;;;;;;;31.70;18.98;;;20.60;99.90;;;;;;4024054;29;20226;-93
2023/05/08 10:34:44;;;;;;;30.00;17.85;;;20.70;99.90;;;;;;4028200;29;20237;-95
2023/05/08 10:36:54;;;;;;;29.20;17.60;;;20.50;99.90;;;;;;4023970;29;20627;-93
2023/05/08 10:39:06;;;;;;;29.35;17.67;;;20.40;99.90;;;;;;4023595;29;20209;-94
2023/05/08 10:41:07;;;;;;;25.05;17.02;;;20.00;99.90;;;;;;4023349;29;20210;-94
2023/05/08 10:43:10;;;;;;;26.35;16.23;;;19.90;99.90;;;;;;4007989;29;20182;-94
2023/05/08 10:45:31;;;;;;;27.63;17.40;;;20.00;99.90;;;;;;4023421;29;20228;-95
2023/05/08 10:47:53;;;;;;;28.13;16.73;;;20.20;99.90;;;;;;4023663;29;20182;-94
2023/05/08 10:49:59;;;;;;;28.67;17.23;;;19.90;99.90;;;;;;4023595;29;20232;-94
2023/05/08 10:52:15;;;;;;;29.17;16.85;;;19.70;99.90;;;;;;4023805;29;20233;-94
2023/05/08 10:54:44;;;;;;;28.70;17.48;;;19.90;99.90;;;;;;4007966;29;20253;-94
2023/05/08 10:56:47;;;;;;;25.65;15.93;;;19.60;99.90;;;;;;4023256;29;20201;-93
2023/05/08 10:58:57;;;;;;;26.15;17.20;;;19.60;99.90;;;;;;4008063;29;20189;-94
2023/05/08 11:01:05;;;;;;;22.85;14.60;;;19.70;99.90;;;;;;4007721;29;20183;-93
2023/05/08 11:03:08;;;;;;;23.45;15.02;;;19.70;99.90;;;;;;4007885;29;20186;-93
2023/05/08 11:05:19;;;;;;;23.63;14.05;;;19.80;99.90;;;;;;4007740;29;20760;-94
2023/05/08 11:07:58;;;;;;;26.58;13.77;;;20.00;99.90;;;;;;4023831;29;20269;-95
2023/05/08 11:10:12;;;;;;;21.27;14.20;;;20.20;99.90;;;;;;4023497;29;20213;-94
2023/05/08 11:12:30;;;;;;;22.55;14.30;;;20.60;99.90;;;;;;4008030;29;20648;-94
2023/05/08 11:14:57;;;;;;;19.90;13.25;;;21.00;99.90;;;;;;4007963;29;20683;-94
2023/05/08 11:17:07;;;;;;;20.42;13.10;;;21.20;99.90;;;;;;4023118;29;20206;-93
2023/05/08 11:19:28;;;;;;;23.38;13.77;;;21.00;99.90;;;;;;4007607;29;20244;-94
2023/05/08 11:22:46;;;;;;;22.05;13.05;;;21.20;99.90;;;;;;4025424;29;20221;-93
2023/05/08 11:25:07;;;;;;;22.65;13.65;;;21.50;99.90;;;;;;3978172;29;20208;-95
2023/05/08 11:27:10;;;;;;;19.50;12.77;;;21.40;99.90;;;;;;3977059;29;20184;-94
2023/05/08 11:29:18;;;;;;;17.98;12.82;;;21.50;99.90;;;;;;3970741;29;20593;-95
2023/05/08 11:31:19;;;;;;;18.77;11.32;;;21.40;99.90;;;;;;4007232;29;20214;-93
2023/05/08 11:33:39;;;;;;;22.77;11.80;;;21.10;99.90;;;;;;4007382;29;20186;-94
2023/05/08 11:36:12;;;;;;;23.63;13.20;;;21.10;99.90;;;;;;4007521;29;20206;-94
2023/05/08 11:38:17;;;;;;;19.38;13.10;;;21.60;99.90;;;;;;4007456;29;20532;-94
2023/05/08 11:40:51;;;;;;;20.20;13.15;;;21.20;99.90;;;;;;4022837;29;20196;-95
2023/05/08 11:42:55;;;;;;;21.35;12.80;;;21.10;99.90;;;;;;4022884;29;20269;-94
2023/05/08 11:45:06;;;;;;;20.88;13.45;;;21.20;99.90;;;;;;4007831;29;20800;-94
2023/05/08 11:47:25;;;;;;;20.15;13.32;;;21.00;99.90;;;;;;4007436;29;20265;-94
2023/05/08 11:49:35;;;;;;;23.08;13.32;;;20.80;99.90;;;;;;4008098;29;20254;-94
2023/05/08 11:51:37;;;;;;;20.77;13.73;;;20.60;99.90;;;;;;4007373;29;20725;-95
2023/05/08 11:53:44;;;;;;;21.70;13.57;;;20.10;99.90;;;;;;4022001;29;20690;-93
2023/05/08 11:55:51;;;;;;;20.92;13.02;;;20.30;99.90;;;;;;4007261;29;20281;-94
2023/05/08 11:58:00;;;;;;;18.58;12.57;;;20.10;99.90;;;;;;4007033;29;20239;-94
2023/05/08 12:00:12;;;;;;;18.67;12.15;;;20.40;99.90;;;;;;4007661;29;20179;-94
2023/05/08 12:02:25;;;;;;;;;;;;;;;;;;;;;
2023/05/08 12:04:47;;;;;;;21.65;13.43;;;20.60;99.90;;;;;;4022277;29;20212;-95
2023/05/08 12:06:50;;;;;;;22.42;12.80;;;21.10;99.90;;;;;;4022062;29;20178;-94
2023/05/08 12:08:51;;;;;;;22.33;13.25;;;21.20;99.90;;;;;;4022440;29;20219;-93
2023/05/08 12:10:56;;;;;;;17.95;11.90;;;21.10;99.90;;;;;;4022009;29;20248;-95
2023/05/08 12:13:00;;;;;;;18.38;12.68;;;21.20;99.90;;;;;;4006045;29;20189;-93
2023/05/08 12:20:29;;;;;;;18.70;12.63;;;21.10;99.90;;;;;;4000562;29;20186;-94
2023/05/08 12:22:32;;;;;;;22.13;13.82;;;20.90;99.90;;;;;;4006255;29;20182;-94
2023/05/08 12:24:33;;;;;;;19.98;12.18;;;21.00;99.90;;;;;;4005921;29;20199;-94
2023/05/08 12:27:03;;;;;;;18.50;12.50;;;21.10;99.90;;;;;;4021488;29;20571;-95
2023/05/08 12:29:06;;;;;;;18.73;12.43;;;21.40;99.90;;;;;;4005896;29;20206;-95
2023/05/08 12:31:10;;;;;;;15.57;10.88;;;21.60;99.90;;;;;;4006323;29;20175;-95
2023/05/08 12:33:12;;;;;;;19.98;11.05;;;21.70;99.90;;;;;;4006386;29;20178;-94
2023/05/08 12:35:36;;;;;;;15.55;10.50;;;21.80;99.90;;;;;;4006012;29;20219;-94
2023/05/08 12:38:22;;;;;;;19.90;10.40;;;21.60;99.90;;;;;;4023500;29;20242;-94
2023/05/08 12:40:58;;;;;;;18.45;11.40;;;21.30;99.90;;;;;;4031278;29;20589;-95
2023/05/08 12:43:08;;;;;;;13.88;10.63;;;21.00;99.90;;;;;;4005946;29;20278;-94
2023/05/08 12:45:38;;;;;;;;;;;;;;;;;;;;;
2023/05/08 12:47:58;;;;;;;13.40;9.30;;;21.20;99.90;;;;;;4021193;29;20685;-94
2023/05/08 12:50:08;;;;;;;15.13;10.38;;;20.90;99.90;;;;;;4006290;29;20224;-95
2023/05/08 12:52:22;;;;;;;15.30;9.55;;;20.70;99.90;;;;;;4006252;29;20170;-94
2023/05/08 12:54:57;;;;;;;;;;;;;;;;;;;;;
2023/05/08 12:57:26;;;;;;;15.98;10.07;;;21.20;99.90;;;;;;4021603;29;20194;-95
2023/05/08 12:59:43;;;;;;;14.52;9.43;;;21.10;99.90;;;;;;4008597;29;20178;-93
2023/05/08 13:01:53;;;;;;;14.05;9.05;;;21.20;99.90;;;;;;4007255;29;20175;-95
2023/05/08 13:04:00;;;;;;;12.43;9.00;;;21.20;99.90;;;;;;4020690;29;20209;-92
2023/05/08 13:06:22;;;;;;;14.70;8.70;;;21.60;99.90;;;;;;4006025;29;20175;-94
2023/05/08 13:08:59;;;;;;;14.50;8.25;;;21.60;99.90;;;;;;4012776;29;20183;-95
2023/05/08 13:11:11;;;;;;;14.95;9.18;;;21.70;99.90;;;;;;4022913;29;20210;-93
2023/05/08 13:13:13;;;;;;;13.38;9.18;;;21.50;99.90;;;;;;4006104;29;20187;-91
2023/05/08 13:15:14;;;;;;;22.70;9.68;;;21.50;99.90;;;;;;4020632;29;20265;-92
2023/05/08 13:17:18;;;;;;;13.48;9.35;;;21.40;99.90;;;;;;4005937;29;20683;-91
2023/05/08 13:19:19;;;;;;;15.43;9.60;;;21.30;99.90;;;;;;4005842;29;20273;-92
2023/05/08 13:21:20;;;;;;;14.70;9.13;;;21.30;99.90;;;;;;4007026;29;20179;-92
2023/05/08 13:23:21;;;;;;;18.42;9.32;;;21.10;99.90;;;;;;4005538;29;20175;-91
2023/05/08 13:25:22;;;;;;;18.52;9.45;;;20.90;99.90;;;;;;4020790;29;20247;-93
2023/05/08 13:27:23;;;;;;;14.85;8.88;;;20.60;99.90;;;;;;4020861;29;20170;-91
2023/05/08 13:29:24;;;;;;;13.20;7.85;;;20.40;99.90;;;;;;4020728;29;20284;-92
2023/05/08 13:31:24;;;;;;;15.07;8.80;;;20.50;99.90;;;;;;4020711;29;20175;-91
2023/05/08 13:33:25;;;;;;;15.07;8.00;;;20.50;99.90;;;;;;4005356;29;20573;-93
2023/05/08 13:35:29;;;;;;;15.27;8.20;;;20.60;99.90;;;;;;4005181;29;20648;-93
2023/05/08 13:37:31;;;;;;;11.63;6.80;;;20.50;99.90;;;;;;4021097;29;20280;-91
2023/05/08 13:39:36;;;;;;;9.40;7.00;;;20.70;99.90;;;;;;4036499;29;20186;-91
2023/05/08 13:41:36;;;;;;;11.35;7.72;;;20.70;99.90;;;;;;4020984;29;20174;-93
2023/05/08 13:43:37;;;;;;;10.93;7.63;;;20.80;99.90;;;;;;4005500;29;20265;-91
2023/05/08 13:45:38;;;;;;;13.77;8.20;;;20.60;99.90;;;;;;4020881;29;20182;-92
2023/05/08 13:47:42;;;;;;;16.85;8.45;;;20.60;99.90;;;;;;4005344;29;20236;-92
2023/05/08 13:49:57;;;;;;;13.60;8.40;;;20.50;99.90;;;;;;4005561;29;20214;-92
2023/05/08 13:51:58;;;;;;;12.60;8.10;;;20.40;99.90;;;;;;4006576;29;20239;-94
2023/05/08 13:54:11;;;;;;;13.82;8.35;;;20.40;99.90;;;;;;4023387;29;20195;-95
2023/05/08 13:56:48;;;;;;;14.02;7.72;;;20.60;99.90;;;;;;4010561;29;20644;-94
2023/05/08 13:59:06;;;;;;;11.50;6.72;;;20.60;99.90;;;;;;4023340;29;20424;-94
2023/05/08 14:01:19;;;;;;;9.23;6.85;;;20.70;99.90;;;;;;4007758;29;20674;-95
2023/05/08 14:03:20;;;;;;;12.02;6.60;;;20.60;99.90;;;;;;4008097;29;20284;-95
2023/05/08 14:05:23;;;;;;;11.48;6.70;;;20.60;99.90;;;;;;4008401;29;20281;-95
2023/05/08 14:07:34;;;;;;;15.18;6.70;;;20.90;99.90;;;;;;4008288;29;20190;-94
2023/05/08 14:09:35;;;;;;;10.93;5.85;;;21.00;99.90;;;;;;4008061;29;20832;-93
2023/05/08 14:11:36;;;;;;;14.25;6.97;;;21.00;99.90;;;;;;4007786;29;20286;-94
2023/05/08 14:14:03;;;;;;;9.45;6.75;;;21.20;99.90;;;;;;4007702;29;20657;-92
2023/05/08 14:16:32;;;;;;;13.85;6.70;;;21.20;99.90;;;;;;4022440;29;20190;-95
2023/05/08 14:18:39;;;;;;;13.27;6.78;;;21.30;99.90;;;;;;4022613;29;20190;-94
2023/05/08 14:20:43;;;;;;;11.25;6.70;;;21.40;99.90;;;;;;4008076;29;20741;-94
2023/05/08 14:23:11;;;;;;;15.55;7.03;;;21.50;99.90;;;;;;4007849;29;20190;-93
2023/05/08 14:30:18;;;;;;;11.43;7.22;;;21.20;99.90;;;;;;3992519;29;20266;-95
2023/05/08 14:33:02;;;;;;;13.55;7.95;;;20.90;99.90;;;;;;4018966;29;20251;-95
2023/05/08 14:35:46;;;;;;;;;;;;;;;;;;;;;
2023/05/08 14:37:53;;;;;;;12.55;7.93;;;20.70;99.90;;;;;;4023043;29;20649;-95
2023/05/08 14:40:04;;;;;;;;;;;;;;;;;;;;;
2023/05/08 14:45:09;;;;;;;11.55;7.90;;;20.50;99.90;;;;;;4022089;29;20266;-94
2023/05/08 14:47:15;;;;;;;15.20;8.27;;;20.50;99.90;;;;;;4007383;29;20185;-93
2023/05/08 14:53:28;;;;;;;14.77;8.07;;;20.00;99.90;;;;;;4023744;29;20186;-95
2023/05/08 14:56:08;;;;;;;14.38;8.48;;;19.60;99.90;;;;;;4007277;29;20234;-96
2023/05/08 14:58:37;;;;;;;12.88;7.90;;;19.70;99.90;;;;;;3962835;29;20177;-93
2023/05/08 15:01:04;;;;;;;11.65;8.07;;;19.80;99.90;;;;;;4010323;29;20216;-95
2023/05/08 15:03:51;;;;;;;;;;;;;;;;;;;;;
2023/05/08 15:09:40;;;;;;;13.13;8.25;;;19.80;99.90;;;;;;3997515;29;20187;-95
2023/05/08 15:15:20;;;;;;;12.93;8.60;;;19.40;99.90;;;;;;4010139;29;20246;-93
2023/05/08 15:17:20;;;;;;;13.82;8.20;;;19.50;99.90;;;;;;3977809;29;20192;-94
2023/05/08 15:19:31;;;;;;;10.85;7.95;;;19.60;99.90;;;;;;3978208;29;20185;-95
2023/05/08 15:21:44;;;;;;;15.48;9.02;;;19.70;99.90;;;;;;3977034;29;20486;-94
2023/05/08 15:26:57;;;;;;;14.57;8.40;;;19.70;99.90;;;;;;3979627;29;20187;-95
2023/05/08 15:29:00;;;;;;;15.48;9.65;;;19.80;99.90;;;;;;3961905;30;20201;-95
2023/05/08 15:31:22;;;;;;;11.85;8.60;;;19.70;99.90;;;;;;3963118;29;20187;-94
2023/05/08 15:38:27;;;;;;;15.48;8.35;;;19.70;99.90;;;;;;4198654;23;20243;-93
2023/05/08 15:41:21;;;;;;;18.25;9.10;;;19.70;99.90;;;;;;4032269;29;20197;-95
2023/05/08 15:47:26;;;;;;;;;;;;;;;;;;;;;
2023/05/08 15:50:01;;;;;;;11.05;7.05;;;20.20;99.90;;;;;;3963473;29;20331;-94
2023/05/08 15:54:12;;;;;;;10.73;7.38;;;20.10;99.90;;;;;;4397088;23;20706;-94
2023/05/08 15:56:23;;;;;;;11.73;7.22;;;20.30;99.90;;;;;;4022519;29;20184;-94
2023/05/08 16:05:58;;;;;;;11.57;7.88;;;20.20;99.90;;;;;;3990880;29;21073;-96
2023/05/08 16:08:10;;;;;;;10.15;7.72;;;20.30;99.90;;;;;;4006767;29;20183;-94
2023/05/08 16:13:44;;;;;;;13.75;8.05;;;20.30;99.90;;;;;;4007413;29;20195;-95
2023/05/08 16:16:15;;;;;;;12.55;8.18;;;20.10;99.90;;;;;;4024404;29;20190;-96
2023/05/08 16:18:37;;;;;;;13.68;7.68;;;19.90;99.90;;;;;;3967122;30;20213;-95
2023/05/08 16:24:22;;;;;;;11.25;8.55;;;19.70;99.90;;;;;;3972399;29;20205;-96
2023/05/08 16:27:24;;;;;;;12.80;7.82;;;19.60;99.90;;;;;;3952766;30;20193;-94
2023/05/08 16:29:27;;;;;;;14.25;7.65;;;19.60;99.90;;;;;;3968723;29;20222;-96
2023/05/08 16:31:38;;;;;;;;;;;;;;;;;;;;;
2023/05/08 16:33:55;;;;;;;;;;;;;;;;;;;;;
2023/05/08 16:36:13;;;;;;;13.02;7.10;;;19.50;99.90;;;;;;3986979;29;20195;-95
2023/05/08 16:38:17;;;;;;;12.60;7.40;;;19.40;99.90;;;;;;3991268;29;20221;-95
2023/05/08 16:40:49;;;;;;;13.65;8.07;;;19.30;99.90;;;;;;3990561;29;20187;-94
2023/05/08 16:43:10;;;;;;;15.50;6.90;;;19.10;99.90;;;;;;3987167;29;20224;-95
2023/05/08 16:45:16;;;;;;;12.48;6.97;;;19.20;99.90;;;;;;3990929;29;20207;-94
2023/05/08 16:47:23;;;;;;;12.30;7.20;;;19.40;99.90;;;;;;3990944;29;20750;-96
2023/05/08 16:49:55;;;;;;;13.68;7.30;;;19.30;99.90;;;;;;3997371;29;20628;-95
2023/05/08 16:51:58;;;;;;;11.10;6.97;;;19.20;99.90;;;;;;4005864;29;20234;-94
2023/05/08 16:54:09;;;;;;;14.30;7.20;;;19.10;99.90;;;;;;4005591;29;20210;-93
2023/05/08 16:56:12;;;;;;;12.45;7.25;;;19.20;99.90;;;;;;4021350;29;20633;-94
2023/05/08 16:58:21;;;;;;;14.00;7.85;;;19.20;99.90;;;;;;4006225;29;20197;-96
2023/05/08 17:00:22;;;;;;;20.00;8.27;;;19.30;99.90;;;;;;4021647;29;20273;-94
2023/05/08 17:02:23;;;;;;;15.25;8.43;;;19.30;99.90;;;;;;4005976;29;20205;-94
2023/05/08 17:04:29;;;;;;;15.07;9.35;;;19.20;99.90;;;;;;4005809;29;20237;-94
2023/05/08 17:06:32;;;;;;;14.07;8.35;;;19.10;99.90;;;;;;4006268;29;20550;-94
2023/05/08 17:09:00;;;;;;;14.13;8.15;;;19.30;99.90;;;;;;4021214;29;20277;-94
2023/05/08 17:11:01;;;;;;;14.10;9.18;;;19.10;99.90;;;;;;4006124;29;20732;-93
2023/05/08 17:13:14;;;;;;;16.55;9.63;;;19.10;99.90;;;;;;4005745;29;20227;-95
2023/05/08 17:15:44;;;;;;;17.65;9.10;;;19.10;99.90;;;;;;4021057;29;20221;-95
2023/05/08 17:17:55;;;;;;;16.05;8.63;;;19.20;99.90;;;;;;4021227;29;20206;-94
2023/05/08 17:20:01;;;;;;;14.05;7.80;;;19.00;99.90;;;;;;4005943;29;20726;-96
2023/05/08 17:22:11;;;;;;;15.60;7.53;;;19.00;99.90;;;;;;4005912;29;20316;-95
2023/05/08 17:24:19;;;;;;;16.17;7.55;;;19.10;99.90;;;;;;4021673;29;20711;-95
2023/05/08 17:26:22;;;;;;;13.32;7.38;;;19.10;99.90;;;;;;4022451;29;20189;-94
2023/05/08 17:28:39;;;;;;;14.13;7.68;;;19.10;99.90;;;;;;4024459;29;20670;-94
2023/05/08 17:30:43;;;;;;;17.20;7.45;;;19.00;99.90;;;;;;4008810;29;20614;-94
2023/05/08 17:32:58;;;;;;;13.23;7.50;;;19.00;99.90;;;;;;4024093;29;20239;-96
2023/05/08 17:35:22;;;;;;;13.95;7.47;;;19.00;99.90;;;;;;4008895;29;20214;-96
2023/05/08 17:37:23;;;;;;;13.82;7.57;;;19.10;99.90;;;;;;4024861;29;20186;-95
2023/05/08 17:39:26;;;;;;;13.10;7.32;;;18.90;99.90;;;;;;4024292;29;20190;-95
2023/05/08 17:41:29;;;;;;;17.45;8.00;;;18.90;99.90;;;;;;4008392;29;20208;-95
2023/05/08 17:43:34;;;;;;;14.07;7.80;;;18.90;99.90;;;;;;4008460;29;20183;-96
2023/05/08 17:45:42;;;;;;;13.02;7.82;;;19.10;99.90;;;;;;4023865;29;20182;-95
2023/05/08 17:47:43;;;;;;;18.65;7.47;;;18.90;99.90;;;;;;4024210;29;20264;-93
2023/05/08 17:50:05;;;;;;;14.23;7.72;;;18.70;99.90;;;;;;4012174;29;20167;-94
2023/05/08 17:52:06;;;;;;;14.45;7.75;;;18.60;99.90;;;;;;4026934;29;20179;-96
2023/05/08 17:54:15;;;;;;;14.30;8.02;;;18.60;99.90;;;;;;4011170;29;20229;-94
2023/05/08 17:56:23;;;;;;;15.55;8.70;;;18.60;99.90;;;;;;4012124;29;20185;-94
2023/05/08 17:58:26;;;;;;;17.98;8.23;;;18.60;99.90;;;;;;4013374;29;20278;-94
2023/05/08 18:00:32;;;;;;;13.52;7.78;;;18.60;99.90;;;;;;4018117;29;20273;-94
2023/05/08 18:02:33;;;;;;;14.55;7.80;;;18.60;99.90;;;;;;4025577;29;20186;-95
2023/05/08 18:04:37;;;;;;;15.27;8.15;;;18.60;99.90;;;;;;4017129;29;20203;-94
2023/05/08 18:06:42;;;;;;;15.77;7.95;;;18.60;99.90;;;;;;4025215;29;20261;-94
2023/05/08 18:08:45;;;;;;;12.63;7.18;;;18.40;99.90;;;;;;4012612;29;20216;-94